Boynton, OK

4:41 PM CDT on July 30, 2015 (GMT -0500)
Christmas Tree Farm | | Change Station
CLOSE
Current Station
Personal Weather Station
Location: Haskell, OK
Elevation: 653 ft
Nearby Weather Stations

Elev 653 ft 35.78 °N, 95.72 °W | Updated 26 seconds ago

Mostly Cloudy
Mostly Cloudy
84.9 °F
Feels Like 94 °F
N
4.5
Wind Variable Wind from North
Gusts 5.4 mph

Today
High -- | Low -- °F
--% Chance of Precip.
Yesterday
High -- | Low -- °F
Precip. -- in
6:29 AM 8:28 PM
Full, 100% visible
Pressure 30.09 in
Visibility 10.0 miles
Clouds Clear
Heat Index 94 °F
Dew Point 76 °F
Humidity 74%
Rainfall 0.58 in
Snow Depth Not available.
UV 6 out of 12
Pollen 4.70 out of 12
Air Quality Not available.
Flu Activity Not available.
METAR KOKM 302135Z AUTO 03012G17KT 10SM CLR 30/25 A3009 RMK AO2 LTG DSNT E T03000247

More Conditions Fewer Conditions

Pressure 30.09 in
Visibility 10.0 miles
Clouds Clear
Heat Index 94 °F
Dew Point 76 °F
Humidity 74%
Rainfall 0.58 in
Snow Depth Not available.
UV 6 out of 12
Pollen 4.70 out of 12
Air Quality Not available.
Flu Activity Not available.
METAR KOKM 302135Z AUTO 03012G17KT 10SM CLR 30/25 A3009 RMK AO2 LTG DSNT E T03000247

More Conditions Fewer Conditions

Nowcast | as of 3:56 PM CDT on July 30, 2015

At 3:56 PM...National Weather Service Doppler radars continued to detect showers and thunderstorms developing across much of eastern Oklahoma and into western Arkansas...mainly along and southeast of a line from Okemah to Bentonville. A couple stronger storms were located within southern Adair and western McIntosh counties. The main threat with these storms will be strong downburst winds...along with brief heavy rainfall and cloud to ground lightning. All this activity was moving toward the southeast...around 20 miles per hour. Through 5:30 PM...scattered showers and thunderstorms will remain possible across portions of eastern Oklahoma and western Arkansas. Average rainfall will be around a tenth of an inch. Some of the storms could become strong to severe...with strong damaging winds being the main threat. Heavy rainfall and cloud to ground lightning will also be likely with any stronger storms.

×

10-Day Weather Forecast

×

Almanac

Astronomy

Jul. 30, 2015 Rise Set
Actual Time
Civil Twilight
Nautical Twilight
Astronomical Twilight
Moon
Length of Visible Light
Length of Day
Tomorrow will be .
, % of the Moon is Illuminated

Today's Extremes

State Highs State Lows

Community

WunderPhotos

Upload Photos

1,842,510 photos uploaded!

WunderBlogs® & News

Nearby

Air Quality

  Air Quality AQ Index Pollutant
Not available.

Snow Depth

Station Depth Elevation

Earthquake Activity

City Distance Mag. Time & Date
Minimum magnitude displayed is 2.5.

Coastal Water Temperatures

Place Temperature

Stations

Nearby Weather Stations

Station Location Temp. Windchill Dew Point Humidity Wind Precip. Elev Updated Type